windsock image

Welcome to Bigfield Strip.

anemometer image
     

 Help for dials.  
 
Local Met:

Wind:   
10 Min average:  
271 ° / 0.0 kts (0.0)
271° / 0.0

Temperature:  
9.1°C C
Dew Point:  
8.0°C C
QNH:  
Trend:  
1014.8 mb mb
+0.3mb/hr
BigField Strip. This image updates approximately every minute, it can have a two minute delay.  
 

Humidity:  
93 %
Sunrise:   06:43z
Sunset:   16:51z
Updated:  
  UTC
 
   More met info, trends, radar, history etc. available here   

LUTON Metar   EGGW 242250Z 27005KT CAVOK 08/08 Q1015
 
  TAF   2014/10/24 18:16 TAF AMD EGGW 241808Z 2418/2518 24007KT 9999 SCT020 TEMPO 2418/2420 4000 +RA BKN009 PROB30 2500/2508 4000 BR
 
BENSON Metar   EGUB 242150Z AUTO 21003KT 9999 // FEW016/// BKN044/// 10/09 Q1015
 
  TAF   2014/10/24 15:24 TAF TAF EGUB 241618Z 2415/2418 CNL
 
Big Field view 1 icon   Big Field view 2 icon   Big Field view 3 icon   Chart AL3a in PDF icon   Chart AL3a in Word icon

WARNING:
This information is provided by the Airstrip unofficial weather station, DO NOT depend on the data provided here for any purpose.
This page is updated for latest Metars & TAF's every 5 minutes. Refresh the browser to check for the lastest.
Page designed for a minimum browser size of 1024x768.
© Copyright 2014 BigField Strip. This page auto generated 23:01 UTC - 24/10/2014   Contact Us
Valid HTML 4.01 Transitional     Windows uptime: 4 Days 20 Hours 29 Minutes 28 Seconds    WD started: 02:37 20/10/14    Free memory: 1504MB     Valid CSS!